aviador You're here:

PACV Decoded Metar

CORDOVA in AK, USA
Report Time2017-11-20 21:53:00
UTC Time2017-11-20 22:45:59
Flight Rules vfr VFR
Wind320° at 05 kt
W.Decomp.*RWY 27: 4.3 kt HW 2.6 kt RCW
RWY 34: 3.9 kt HW 3.1 kt LCW
W.Rank320° ranks 36
Current wind is above 320° avg. (3.9)
Visibility9999 m
Phenomena:N/A
Clouds:Few 080 Hf
Broken 150 Hf
Expected CloudBase > 4,000 ft AGL from Temp-Dew spread
Ceiling15,000 ft
Temp01°C (ISA -14)
Dew Point-9°C (48% RH)
AAT-3.8°C
QNH1004 hPa
Density Alt-1,306 ft
Elevation39 ft
Report Wrong Elevation
Raw Report
PACV 202153Z 32005KT 10SM FEW080 BKN150 01/M09 A2966 RMK AO2
SLP044 T00061094=

Extra information for PACV:More info

Metar Taf Metar & Taf Last 4 Metars F.Rules Stats Wind Profile Meteogram Temp Stats Airport Information Weather charts Add Link Nearby VenuesMetar ALERT Operation Metar Decoded Social comments

AIRNAV info for PACV